Time;durP1;ratioP1;P1;durP2;ratioP2;P2;SDS_P1;SDS_P2;PMS_P1;PMS_P2;Temp;Humidity;BMP_temperature;BMP_pressure;BME280_temperature;BME280_humidity;BME280_pressure;Samples;Min_cycle;Max_cycle;Signal;HPM_P1;HPM_P2
2022/11/26 00:00:27;;;;;;;15.60;7.25;;;6.40;99.90;;;;;;5074158;28;20036;-79
2022/11/26 00:02:53;;;;;;;23.10;9.20;;;6.40;99.90;;;;;;5070299;28;20075;-79
2022/11/26 00:05:19;;;;;;;18.55;9.38;;;6.40;99.90;;;;;;5072131;28;20455;-79
2022/11/26 00:07:55;;;;;;;20.17;9.55;;;6.30;99.90;;;;;;5070329;28;20058;-79
2022/11/26 00:10:24;;;;;;;18.27;9.18;;;6.30;99.90;;;;;;5071690;28;20020;-79
2022/11/26 00:12:50;;;;;;;21.95;9.77;;;6.20;99.90;;;;;;5071652;28;20027;-79
2022/11/26 00:15:22;;;;;;;24.63;12.10;;;6.20;99.90;;;;;;5070510;28;20516;-79
2022/11/26 00:17:49;;;;;;;26.25;11.48;;;6.30;99.90;;;;;;5070285;28;20051;-79
2022/11/26 00:20:17;;;;;;;24.63;11.68;;;6.30;99.90;;;;;;5071822;28;20025;-79
2022/11/26 00:22:54;;;;;;;23.38;10.52;;;6.30;99.90;;;;;;5071561;28;20031;-79
2022/11/26 00:25:26;;;;;;;18.27;9.02;;;6.20;99.90;;;;;;5071725;28;20071;-79
2022/11/26 00:27:56;;;;;;;16.75;8.43;;;6.10;99.90;;;;;;5088717;28;20036;-80
2022/11/26 00:30:26;;;;;;;14.32;7.38;;;6.00;99.90;;;;;;5092023;28;20028;-79
2022/11/26 00:32:54;;;;;;;13.45;6.95;;;6.00;99.90;;;;;;5091477;28;20112;-79
2022/11/26 00:35:21;;;;;;;12.13;5.85;;;6.00;99.90;;;;;;5090724;28;20024;-79
2022/11/26 00:37:51;;;;;;;10.60;5.97;;;5.90;99.90;;;;;;5092084;28;20026;-80
2022/11/26 00:40:20;;;;;;;10.45;5.63;;;6.10;99.90;;;;;;5091728;28;20477;-79
2022/11/26 00:42:46;;;;;;;16.98;7.20;;;6.00;99.90;;;;;;5091005;28;20043;-79
2022/11/26 00:45:23;;;;;;;15.77;6.97;;;6.00;99.90;;;;;;5091213;28;20119;-80
2022/11/26 00:47:50;;;;;;;16.05;7.78;;;6.00;99.90;;;;;;5091989;28;20031;-79
2022/11/26 00:50:19;;;;;;;16.05;8.15;;;6.00;99.90;;;;;;5089983;28;20026;-79
2022/11/26 00:52:47;;;;;;;14.23;7.32;;;5.80;99.90;;;;;;5089980;28;20026;-79
2022/11/26 00:55:28;;;;;;;18.00;7.90;;;5.90;99.90;;;;;;5091438;28;20016;-79
2022/11/26 00:57:55;;;;;;;15.00;8.07;;;5.80;99.90;;;;;;5087751;28;20016;-79
2022/11/26 01:00:24;;;;;;;12.80;6.93;;;5.80;99.90;;;;;;5073773;28;20020;-79
2022/11/26 01:02:50;;;;;;;11.48;6.45;;;5.80;99.90;;;;;;5069300;28;20024;-79
2022/11/26 01:05:17;;;;;;;12.68;6.45;;;5.80;99.90;;;;;;5070054;28;20024;-79
2022/11/26 01:07:44;;;;;;;10.93;5.68;;;5.70;99.90;;;;;;5070952;28;20079;-79
2022/11/26 01:10:23;;;;;;;11.60;6.38;;;5.90;99.90;;;;;;5070493;28;20100;-79
2022/11/26 01:12:49;;;;;;;13.18;7.10;;;5.80;99.90;;;;;;5083728;28;20032;-79
2022/11/26 01:15:17;;;;;;;11.13;5.88;;;5.90;99.90;;;;;;5070971;28;20092;-79
2022/11/26 01:17:43;;;;;;;11.82;6.38;;;5.70;99.90;;;;;;5070762;28;20021;-79
2022/11/26 01:20:25;;;;;;;11.20;6.63;;;5.70;99.90;;;;;;5069422;28;20546;-79
2022/11/26 01:22:52;;;;;;;9.98;6.03;;;5.70;99.90;;;;;;5070496;28;20099;-79
2022/11/26 01:25:19;;;;;;;10.27;6.65;;;5.60;99.90;;;;;;5068797;28;20135;-79
2022/11/26 01:27:45;;;;;;;10.20;5.28;;;5.50;99.90;;;;;;5082846;28;20024;-79
2022/11/26 01:30:26;;;;;;;10.80;5.65;;;5.60;99.90;;;;;;5070465;28;20048;-79
2022/11/26 01:32:52;;;;;;;9.10;5.25;;;5.60;99.90;;;;;;5070414;28;20027;-79
2022/11/26 01:35:20;;;;;;;10.73;5.85;;;5.70;99.90;;;;;;5070677;28;20028;-79
2022/11/26 01:37:46;;;;;;;8.93;5.15;;;5.70;99.90;;;;;;5069356;28;20494;-79
2022/11/26 01:40:30;;;;;;;8.02;4.85;;;5.50;99.90;;;;;;5070362;28;20056;-79
2022/11/26 01:43:00;;;;;;;7.93;5.15;;;5.50;99.90;;;;;;5078258;28;20012;-79
2022/11/26 01:45:26;;;;;;;9.98;5.15;;;5.40;99.90;;;;;;5090628;28;20107;-79
2022/11/26 01:47:51;;;;;;;9.40;5.60;;;5.50;99.90;;;;;;5090699;28;20099;-79
2022/11/26 01:50:33;;;;;;;10.05;5.20;;;5.40;99.90;;;;;;5090581;28;20020;-79
2022/11/26 01:53:43;;;;;;;9.10;5.43;;;5.30;99.90;;;;;;5090492;28;20019;-79
2022/11/26 01:56:32;;;;;;;7.57;4.55;;;5.20;99.90;;;;;;4999566;28;20524;-79
2022/11/26 01:59:19;;;;;;;8.45;4.53;;;5.30;99.90;;;;;;4979529;28;20064;-79
2022/11/26 02:01:45;;;;;;;9.45;5.22;;;5.30;99.90;;;;;;4992703;28;20031;-79
2022/11/26 02:04:36;;;;;;;6.93;4.32;;;5.30;99.90;;;;;;4992645;28;20035;-79
2022/11/26 02:07:03;;;;;;;7.93;4.60;;;5.30;99.90;;;;;;4992848;28;20092;-79
2022/11/26 02:09:29;;;;;;;6.05;4.38;;;5.20;99.90;;;;;;4976089;28;20058;-79
2022/11/26 02:11:55;;;;;;;7.05;4.07;;;5.30;99.90;;;;;;4992739;28;20031;-79
2022/11/26 02:14:42;;;;;;;6.38;3.97;;;5.20;99.90;;;;;;4992166;28;20527;-79
2022/11/26 02:17:31;;;;;;;5.18;3.67;;;5.10;99.90;;;;;;5000404;28;20062;-79
2022/11/26 02:20:19;;;;;;;5.55;3.65;;;5.10;99.90;;;;;;5012116;28;20064;-79
2022/11/26 02:22:48;;;;;;;5.75;3.58;;;5.10;99.90;;;;;;5003066;28;20038;-79
2022/11/26 02:25:22;;;;;;;5.70;3.65;;;5.10;99.90;;;;;;5011806;28;20073;-79
2022/11/26 02:27:59;;;;;;;5.10;3.45;;;5.10;99.90;;;;;;5011718;28;20527;-79
2022/11/26 02:30:30;;;;;;;4.55;3.38;;;5.00;99.90;;;;;;5011876;28;20033;-79
2022/11/26 02:33:16;;;;;;;4.87;3.33;;;5.00;99.90;;;;;;5050529;28;20174;-79
2022/11/26 02:36:03;;;;;;;4.68;2.88;;;4.90;99.90;;;;;;5073732;28;20038;-79
2022/11/26 02:38:29;;;;;;;4.55;3.22;;;4.90;99.90;;;;;;5073997;28;20036;-79
2022/11/26 02:40:55;;;;;;;5.43;3.80;;;4.90;99.90;;;;;;5073859;28;20028;-79
2022/11/26 02:43:24;;;;;;;5.70;3.88;;;5.00;99.90;;;;;;5073975;28;20326;-79
2022/11/26 02:45:54;;;;;;;4.65;3.63;;;4.90;99.90;;;;;;5073646;28;20032;-79
2022/11/26 02:48:27;;;;;;;5.63;3.47;;;4.90;99.90;;;;;;5073794;28;20028;-79
2022/11/26 02:50:58;;;;;;;4.88;3.08;;;4.80;99.90;;;;;;5073540;28;20099;-79
2022/11/26 02:53:27;;;;;;;4.32;3.13;;;4.80;99.90;;;;;;5073472;28;20044;-79
2022/11/26 02:56:09;;;;;;;5.13;3.45;;;4.80;99.90;;;;;;5079918;28;20035;-79
2022/11/26 02:58:35;;;;;;;6.22;3.72;;;4.70;99.90;;;;;;5087495;28;20012;-79
2022/11/26 03:01:09;;;;;;;5.93;4.00;;;4.70;99.90;;;;;;5073032;28;20037;-79
2022/11/26 03:03:41;;;;;;;7.00;4.63;;;4.60;99.90;;;;;;5071152;28;20024;-79
2022/11/26 03:06:11;;;;;;;6.72;4.20;;;4.70;99.90;;;;;;5071928;28;20082;-79
2022/11/26 03:08:37;;;;;;;8.18;4.57;;;4.70;99.90;;;;;;5073595;28;20009;-79
2022/11/26 03:11:04;;;;;;;7.88;4.60;;;4.70;99.90;;;;;;5071872;28;20506;-79
2022/11/26 03:13:30;;;;;;;5.88;4.35;;;4.70;99.90;;;;;;5073230;28;20021;-79
2022/11/26 03:15:56;;;;;;;6.10;3.60;;;4.70;99.90;;;;;;5073419;28;20033;-79
2022/11/26 03:18:22;;;;;;;5.10;3.65;;;4.60;99.90;;;;;;5072672;28;20383;-79
2022/11/26 03:20:47;;;;;;;4.82;3.65;;;4.40;99.90;;;;;;5084490;28;20043;-79
2022/11/26 03:23:13;;;;;;;5.75;3.78;;;4.50;99.90;;;;;;5074626;28;20506;-79
2022/11/26 03:25:39;;;;;;;6.10;3.85;;;4.50;99.90;;;;;;5072403;28;20048;-79
2022/11/26 03:28:05;;;;;;;4.65;3.58;;;4.60;99.90;;;;;;5091612;28;20493;-79
2022/11/26 03:30:31;;;;;;;4.60;3.40;;;4.60;99.90;;;;;;5093372;28;20016;-79
2022/11/26 03:32:56;;;;;;;5.78;3.88;;;4.50;99.90;;;;;;5092612;28;20481;-79
2022/11/26 03:35:22;;;;;;;5.13;3.65;;;4.60;99.90;;;;;;5091705;28;20481;-79
2022/11/26 03:37:48;;;;;;;4.43;3.72;;;4.60;99.90;;;;;;5092852;28;20028;-79
2022/11/26 03:40:15;;;;;;;5.72;3.83;;;4.60;99.90;;;;;;5092566;28;20521;-79
2022/11/26 03:42:42;;;;;;;5.35;3.70;;;4.60;99.90;;;;;;5091701;28;20028;-79
2022/11/26 03:45:08;;;;;;;5.20;4.00;;;4.50;99.90;;;;;;5092709;28;20040;-79
2022/11/26 03:47:33;;;;;;;5.35;3.72;;;4.50;99.90;;;;;;5092340;28;20024;-79
2022/11/26 03:49:59;;;;;;;5.13;3.20;;;4.40;99.90;;;;;;5092637;28;20020;-79
2022/11/26 03:52:25;;;;;;;5.97;3.67;;;4.50;99.90;;;;;;5092730;28;20059;-79
2022/11/26 03:54:51;;;;;;;4.95;3.50;;;4.40;99.90;;;;;;5080614;28;20500;-79
2022/11/26 03:57:17;;;;;;;5.35;3.70;;;4.50;99.90;;;;;;5072091;28;20101;-79
2022/11/26 03:59:42;;;;;;;4.72;3.17;;;4.40;99.90;;;;;;5079018;28;20095;-79
2022/11/26 04:02:08;;;;;;;4.97;3.55;;;4.50;99.90;;;;;;5072061;28;20537;-79
2022/11/26 04:04:34;;;;;;;4.43;3.10;;;4.40;99.90;;;;;;5072080;28;20486;-79
2022/11/26 04:07:00;;;;;;;3.28;2.75;;;4.40;99.90;;;;;;5071978;28;20047;-78
2022/11/26 04:09:25;;;;;;;4.95;3.22;;;4.30;99.90;;;;;;5071764;28;20081;-79
2022/11/26 04:11:51;;;;;;;5.05;3.92;;;4.40;99.90;;;;;;5070388;28;20563;-79
2022/11/26 04:14:17;;;;;;;4.85;3.33;;;4.40;99.90;;;;;;5071757;28;20025;-79
2022/11/26 04:16:43;;;;;;;4.88;3.50;;;4.40;99.90;;;;;;5071704;28;20656;-79
2022/11/26 04:19:08;;;;;;;4.13;3.22;;;4.30;99.90;;;;;;5071407;28;20501;-79
2022/11/26 04:21:34;;;;;;;4.05;3.10;;;4.30;99.90;;;;;;5071435;28;20154;-79
2022/11/26 04:24:00;;;;;;;4.32;3.08;;;4.40;99.90;;;;;;5069880;28;20417;-79
2022/11/26 04:26:25;;;;;;;4.93;3.15;;;4.40;99.90;;;;;;5075754;28;20024;-79
2022/11/26 04:28:51;;;;;;;5.15;3.22;;;4.40;99.90;;;;;;5092081;28;20579;-79
2022/11/26 04:31:17;;;;;;;5.28;3.47;;;4.40;99.90;;;;;;5092112;28;20486;-79
2022/11/26 04:33:43;;;;;;;3.80;2.95;;;4.50;99.90;;;;;;5091700;28;20103;-79
2022/11/26 04:36:09;;;;;;;4.00;3.00;;;4.50;99.90;;;;;;5091507;28;20502;-79
2022/11/26 04:38:36;;;;;;;3.55;3.00;;;4.50;99.90;;;;;;5091675;28;20082;-79
2022/11/26 04:41:02;;;;;;;3.67;2.63;;;4.40;99.90;;;;;;5089977;28;20056;-79
2022/11/26 04:43:28;;;;;;;5.40;3.00;;;4.40;99.90;;;;;;5091598;28;20052;-79
2022/11/26 04:45:54;;;;;;;4.13;2.90;;;4.40;99.90;;;;;;5091471;28;20504;-79
2022/11/26 04:48:19;;;;;;;5.15;3.00;;;4.50;99.90;;;;;;5091310;28;20030;-79
2022/11/26 04:50:45;;;;;;;4.53;2.83;;;4.40;99.90;;;;;;5091061;28;20016;-79
2022/11/26 04:53:11;;;;;;;4.50;2.97;;;4.40;99.90;;;;;;5091497;28;20551;-79
2022/11/26 04:55:37;;;;;;;3.67;3.08;;;4.50;99.90;;;;;;5091102;28;20048;-79
2022/11/26 04:58:02;;;;;;;3.33;2.60;;;4.50;99.90;;;;;;5087702;28;20530;-79
2022/11/26 05:00:28;;;;;;;3.47;2.30;;;4.50;99.90;;;;;;5073519;28;20545;-79
2022/11/26 05:02:54;;;;;;;2.55;2.13;;;4.50;99.90;;;;;;5071182;28;20517;-79
2022/11/26 05:05:19;;;;;;;2.65;2.20;;;4.50;99.90;;;;;;5075105;28;20393;-79
2022/11/26 05:07:45;;;;;;;3.88;2.47;;;4.50;99.90;;;;;;5080298;28;20028;-79
2022/11/26 05:10:11;;;;;;;2.80;2.42;;;4.40;99.90;;;;;;5075215;28;20485;-79
2022/11/26 05:12:37;;;;;;;3.85;2.55;;;4.40;99.90;;;;;;5079941;28;20020;-79
2022/11/26 05:15:04;;;;;;;5.22;2.40;;;4.40;99.90;;;;;;5084376;28;20153;-79
2022/11/26 05:17:30;;;;;;;3.38;2.05;;;4.40;99.90;;;;;;5080961;28;20024;-79
2022/11/26 05:19:56;;;;;;;3.28;2.13;;;4.40;99.90;;;;;;5072963;28;20099;-79
2022/11/26 05:22:21;;;;;;;2.75;2.10;;;4.30;99.90;;;;;;5070733;28;20520;-79
2022/11/26 05:24:47;;;;;;;3.17;2.05;;;4.40;99.90;;;;;;5070443;28;20585;-79
2022/11/26 05:27:13;;;;;;;3.03;2.20;;;4.30;99.90;;;;;;5071261;28;20502;-79
2022/11/26 05:29:38;;;;;;;2.22;1.80;;;4.30;99.90;;;;;;5070768;28;20517;-79
2022/11/26 05:32:04;;;;;;;3.40;2.50;;;4.30;99.90;;;;;;5070502;28;20028;-79
2022/11/26 05:34:30;;;;;;;3.38;1.90;;;4.30;99.90;;;;;;5069776;28;20565;-79
2022/11/26 05:36:55;;;;;;;2.63;2.08;;;4.40;99.90;;;;;;5069825;28;20563;-79
2022/11/26 05:39:21;;;;;;;3.08;1.95;;;4.40;99.90;;;;;;5070483;28;20031;-78
2022/11/26 05:41:47;;;;;;;3.33;1.73;;;4.30;99.90;;;;;;5070532;28;20390;-79
2022/11/26 05:44:13;;;;;;;2.22;2.03;;;4.30;99.90;;;;;;5070428;28;20521;-79
2022/11/26 05:46:41;;;;;;;3.00;2.05;;;4.40;99.90;;;;;;5070670;28;20036;-79
2022/11/26 05:49:07;;;;;;;1.90;1.70;;;4.40;99.90;;;;;;5087710;28;20067;-79
2022/11/26 05:51:33;;;;;;;3.63;1.63;;;4.30;99.90;;;;;;5089794;28;20519;-79
2022/11/26 05:53:59;;;;;;;2.88;1.88;;;4.30;99.90;;;;;;5090604;28;20024;-79
2022/11/26 05:56:24;;;;;;;2.38;1.88;;;4.40;99.90;;;;;;5090522;28;20036;-79
2022/11/26 05:58:50;;;;;;;2.20;2.00;;;4.40;99.90;;;;;;5081130;28;20510;-79
2022/11/26 06:01:16;;;;;;;2.00;1.77;;;4.40;99.90;;;;;;5070461;28;20020;-79
2022/11/26 06:03:41;;;;;;;2.50;2.13;;;4.40;99.90;;;;;;5070346;28;20521;-79
2022/11/26 06:06:07;;;;;;;2.47;1.80;;;4.40;99.90;;;;;;5070472;28;20529;-79
2022/11/26 06:08:33;;;;;;;3.38;2.30;;;4.40;99.90;;;;;;5069933;28;20033;-79
2022/11/26 06:10:59;;;;;;;3.30;2.17;;;4.50;99.90;;;;;;5070351;28;20096;-79
2022/11/26 06:13:25;;;;;;;3.22;2.13;;;4.50;99.90;;;;;;5069979;28;20103;-79
2022/11/26 06:15:51;;;;;;;2.22;1.90;;;4.40;99.90;;;;;;5070171;28;20577;-79
2022/11/26 06:18:17;;;;;;;5.43;2.28;;;4.40;99.90;;;;;;5069173;28;20521;-79
2022/11/26 06:20:44;;;;;;;4.80;1.73;;;4.50;99.90;;;;;;5080342;28;20020;-79
2022/11/26 06:23:10;;;;;;;3.33;1.75;;;4.60;99.90;;;;;;5072752;28;20029;-79
2022/11/26 06:25:39;;;;;;;2.15;1.83;;;4.60;99.90;;;;;;5069883;28;20525;-79
2022/11/26 06:28:05;;;;;;;2.03;1.73;;;4.60;99.90;;;;;;5087735;28;20021;-79
2022/11/26 06:30:30;;;;;;;3.40;1.92;;;4.60;99.90;;;;;;5090016;28;20145;-79
2022/11/26 06:32:56;;;;;;;1.88;1.52;;;4.60;99.90;;;;;;5089835;28;20162;-79
2022/11/26 06:35:22;;;;;;;3.92;1.80;;;4.50;99.90;;;;;;5090495;28;20013;-79
2022/11/26 06:37:48;;;;;;;3.03;2.00;;;4.60;99.90;;;;;;5090024;28;20519;-79
2022/11/26 06:40:18;;;;;;;2.35;1.70;;;4.60;99.90;;;;;;5089780;28;20024;-79
2022/11/26 06:42:48;;;;;;;2.30;1.70;;;4.60;99.90;;;;;;5090342;28;20038;-79
2022/11/26 06:45:14;;;;;;;2.90;2.10;;;4.70;99.90;;;;;;5092086;28;20032;-79
2022/11/26 06:47:40;;;;;;;2.20;1.88;;;4.70;99.90;;;;;;5093439;28;20039;-79
2022/11/26 06:50:06;;;;;;;3.30;2.00;;;4.60;99.90;;;;;;5093880;28;20488;-79
2022/11/26 06:52:32;;;;;;;2.67;1.92;;;4.50;99.90;;;;;;5092209;28;20114;-79
2022/11/26 06:54:58;;;;;;;3.50;2.05;;;4.50;99.90;;;;;;5093622;28;20098;-79
2022/11/26 06:57:23;;;;;;;2.38;1.90;;;4.50;99.90;;;;;;5088672;28;20033;-79
2022/11/26 06:59:50;;;;;;;2.70;2.28;;;4.60;99.90;;;;;;5081166;28;20491;-79
2022/11/26 07:02:16;;;;;;;3.20;2.30;;;4.80;99.90;;;;;;5073001;28;20028;-79
2022/11/26 07:04:41;;;;;;;3.13;1.90;;;4.70;99.90;;;;;;5073622;28;20048;-79
2022/11/26 07:07:07;;;;;;;2.45;2.10;;;4.60;99.90;;;;;;5072910;28;20047;-79
2022/11/26 07:09:33;;;;;;;3.38;2.53;;;4.50;99.90;;;;;;5073027;28;20506;-79
2022/11/26 07:11:58;;;;;;;2.75;2.35;;;4.60;99.90;;;;;;5072874;28;20024;-79
2022/11/26 07:14:24;;;;;;;4.05;2.85;;;4.60;99.90;;;;;;5073308;28;20028;-79
2022/11/26 07:16:50;;;;;;;2.60;2.40;;;4.70;99.90;;;;;;5072977;28;20449;-79
2022/11/26 07:19:15;;;;;;;3.05;2.28;;;4.70;99.90;;;;;;5073200;28;20507;-79
2022/11/26 07:21:41;;;;;;;3.75;2.55;;;4.60;99.90;;;;;;5071393;28;20573;-79
2022/11/26 07:24:07;;;;;;;4.40;2.65;;;4.50;99.90;;;;;;5072580;28;20057;-79
2022/11/26 07:26:32;;;;;;;3.45;2.63;;;4.50;99.90;;;;;;5077791;28;20024;-79
2022/11/26 07:28:58;;;;;;;4.10;2.40;;;4.60;99.90;;;;;;5093135;28;20084;-79
2022/11/26 07:31:24;;;;;;;3.53;2.40;;;4.70;99.90;;;;;;5093034;28;20521;-79
2022/11/26 07:33:50;;;;;;;3.67;2.53;;;4.60;99.90;;;;;;5092639;28;20031;-79
2022/11/26 07:36:21;;;;;;;2.95;2.60;;;4.70;99.90;;;;;;5091465;28;20555;-79
2022/11/26 07:38:47;;;;;;;3.20;2.30;;;4.80;99.90;;;;;;5091106;28;20417;-79
2022/11/26 07:41:16;;;;;;;2.70;2.40;;;4.80;99.90;;;;;;5092494;28;20489;-79
2022/11/26 07:43:43;;;;;;;3.22;2.38;;;4.80;99.90;;;;;;5092868;28;20067;-79
2022/11/26 07:46:11;;;;;;;4.47;2.90;;;4.70;99.90;;;;;;5091077;28;20036;-79
2022/11/26 07:48:39;;;;;;;3.03;2.15;;;4.80;99.90;;;;;;5092614;28;20099;-79
2022/11/26 07:51:06;;;;;;;3.38;2.40;;;4.90;99.90;;;;;;5092554;28;20020;-79
2022/11/26 07:53:33;;;;;;;4.40;2.85;;;5.00;99.90;;;;;;5092527;28;20040;-79
2022/11/26 07:56:02;;;;;;;2.83;2.28;;;5.00;99.90;;;;;;5090739;28;20024;-79
2022/11/26 07:58:28;;;;;;;2.58;2.33;;;4.90;99.90;;;;;;5087663;28;20489;-79
2022/11/26 08:00:54;;;;;;;2.38;2.17;;;4.80;99.90;;;;;;5072006;28;20035;-79
2022/11/26 08:03:19;;;;;;;3.10;2.30;;;4.90;99.90;;;;;;5072447;28;20032;-79
2022/11/26 08:05:45;;;;;;;4.05;2.67;;;5.00;99.90;;;;;;5072299;28;20094;-79
2022/11/26 08:08:11;;;;;;;4.93;3.33;;;5.10;99.90;;;;;;5072144;28;20031;-79
2022/11/26 08:10:38;;;;;;;5.05;2.97;;;5.00;99.90;;;;;;5070641;28;20496;-79
2022/11/26 08:13:04;;;;;;;4.90;3.00;;;5.00;99.90;;;;;;5071865;28;20420;-79
2022/11/26 08:15:31;;;;;;;5.05;3.42;;;5.00;99.90;;;;;;5071579;28;20548;-79
2022/11/26 08:17:57;;;;;;;5.22;3.55;;;5.10;99.90;;;;;;5072055;28;20108;-79
2022/11/26 08:20:24;;;;;;;3.97;2.85;;;5.20;99.90;;;;;;5071736;28;20125;-79
2022/11/26 08:22:49;;;;;;;4.63;2.80;;;5.10;99.90;;;;;;5071419;28;20521;-79
2022/11/26 08:25:15;;;;;;;4.70;2.85;;;5.20;99.90;;;;;;5071674;28;20068;-79
2022/11/26 08:27:42;;;;;;;5.30;2.75;;;5.40;99.90;;;;;;5087136;28;20504;-79
2022/11/26 08:30:09;;;;;;;3.55;2.90;;;5.50;99.90;;;;;;5091381;28;20512;-79
2022/11/26 08:32:35;;;;;;;4.10;2.50;;;5.50;99.90;;;;;;5091774;28;20498;-79
2022/11/26 08:35:01;;;;;;;4.15;2.90;;;5.80;99.90;;;;;;5088224;28;20074;-79
2022/11/26 08:37:26;;;;;;;3.97;2.88;;;6.00;99.90;;;;;;5072397;28;20048;-79
2022/11/26 08:39:52;;;;;;;4.13;2.47;;;6.10;99.90;;;;;;5071339;28;20033;-79
2022/11/26 08:42:18;;;;;;;4.47;2.80;;;6.10;99.90;;;;;;5071064;28;20498;-79
2022/11/26 08:44:43;;;;;;;4.03;2.45;;;6.30;99.90;;;;;;5077597;28;20025;-79
2022/11/26 08:47:09;;;;;;;3.88;2.60;;;6.60;99.90;;;;;;5073991;28;20112;-79
2022/11/26 08:49:35;;;;;;;4.30;2.70;;;6.60;99.90;;;;;;5091914;28;20028;-79
2022/11/26 08:52:01;;;;;;;4.88;3.00;;;6.50;99.90;;;;;;5074900;28;20027;-79
2022/11/26 08:54:27;;;;;;;5.13;3.33;;;6.30;99.90;;;;;;5071181;28;20489;-79
2022/11/26 08:56:53;;;;;;;3.72;2.45;;;6.40;99.90;;;;;;5069572;28;20489;-79
2022/11/26 08:59:21;;;;;;;4.57;2.78;;;6.40;99.90;;;;;;5076667;28;20024;-79
2022/11/26 09:01:47;;;;;;;4.13;3.08;;;6.40;99.90;;;;;;5072366;28;20056;-79
2022/11/26 09:04:13;;;;;;;3.83;2.50;;;6.40;99.90;;;;;;5070364;28;20050;-79
2022/11/26 09:06:40;;;;;;;3.72;2.65;;;6.40;99.90;;;;;;5070248;28;20050;-79
2022/11/26 09:09:13;;;;;;;3.80;2.88;;;6.50;99.90;;;;;;5069717;28;20107;-79
2022/11/26 09:11:41;;;;;;;3.67;2.40;;;6.60;99.90;;;;;;5078978;28;20113;-79
2022/11/26 09:14:07;;;;;;;4.70;3.03;;;6.50;99.90;;;;;;5068631;28;20028;-79
2022/11/26 09:16:33;;;;;;;4.93;2.35;;;6.70;99.90;;;;;;5070759;28;20021;-79
2022/11/26 09:19:00;;;;;;;3.58;2.50;;;6.80;99.90;;;;;;5069207;28;20032;-79
2022/11/26 09:21:26;;;;;;;4.53;2.88;;;6.80;99.90;;;;;;5070039;28;20032;-79
2022/11/26 09:23:53;;;;;;;3.67;2.63;;;7.00;99.90;;;;;;5070286;28;20032;-79
2022/11/26 09:26:20;;;;;;;3.15;2.20;;;7.10;99.90;;;;;;5074576;28;20024;-79
2022/11/26 09:28:49;;;;;;;4.50;2.72;;;7.30;99.90;;;;;;5089891;28;20035;-79
2022/11/26 09:31:16;;;;;;;3.40;2.35;;;7.20;99.90;;;;;;5090133;28;20020;-79
2022/11/26 09:33:42;;;;;;;6.50;2.63;;;7.40;99.90;;;;;;5090249;28;20032;-79
2022/11/26 09:36:11;;;;;;;4.97;2.55;;;7.70;99.90;;;;;;5090692;28;20057;-79
2022/11/26 09:38:37;;;;;;;6.53;2.78;;;7.80;99.90;;;;;;5079214;28;20046;-79
2022/11/26 09:41:09;;;;;;;3.20;2.45;;;7.70;99.90;;;;;;5069699;28;20036;-79
2022/11/26 09:43:37;;;;;;;4.07;2.95;;;7.80;99.90;;;;;;5069277;28;20055;-79
2022/11/26 09:46:03;;;;;;;5.55;2.85;;;8.00;99.90;;;;;;5068625;28;20028;-79
2022/11/26 09:48:31;;;;;;;4.47;3.00;;;7.90;99.90;;;;;;5082647;28;20099;-79
2022/11/26 09:51:10;;;;;;;5.28;3.08;;;7.90;99.90;;;;;;5088484;28;20073;-79
2022/11/26 09:53:48;;;;;;;3.55;2.47;;;8.10;99.90;;;;;;5090237;28;20027;-79
2022/11/26 09:56:25;;;;;;;3.95;2.35;;;8.20;99.90;;;;;;5090132;28;20032;-79
2022/11/26 09:59:04;;;;;;;4.78;2.33;;;8.20;99.90;;;;;;5081551;28;20024;-79
2022/11/26 10:01:32;;;;;;;5.10;2.92;;;8.30;99.90;;;;;;5076268;28;20032;-79
2022/11/26 10:03:58;;;;;;;3.72;3.00;;;8.40;99.90;;;;;;5076099;28;20121;-79
2022/11/26 10:07:06;;;;;;;4.93;3.38;;;8.50;99.90;;;;;;5082283;28;20127;-79
2022/11/26 10:09:46;;;;;;;4.97;3.25;;;8.70;99.90;;;;;;5079248;28;20024;-79
2022/11/26 10:12:30;;;;;;;6.10;3.15;;;8.80;99.90;;;;;;5077943;28;20063;-80
2022/11/26 10:15:12;;;;;;;4.38;2.60;;;8.70;99.90;;;;;;5076489;28;20574;-79
2022/11/26 10:17:52;;;;;;;4.90;3.17;;;8.70;99.90;;;;;;5073680;28;20052;-79
2022/11/26 10:20:30;;;;;;;5.63;3.20;;;8.50;99.90;;;;;;5079256;28;20103;-79
2022/11/26 10:23:16;;;;;;;6.82;2.78;;;8.50;99.90;;;;;;5086097;28;20027;-81
2022/11/26 10:25:56;;;;;;;6.30;3.88;;;8.60;99.90;;;;;;5073047;28;20049;-80
2022/11/26 10:28:53;;;;;;;7.50;4.10;;;8.60;99.90;;;;;;5080416;28;20509;-80
2022/11/26 10:31:26;;;;;;;4.97;3.65;;;8.70;99.90;;;;;;5074294;28;20525;-79
2022/11/26 10:33:55;;;;;;;6.00;3.13;;;8.70;99.90;;;;;;5092094;28;20031;-80
2022/11/26 10:36:39;;;;;;;4.68;3.25;;;8.90;99.90;;;;;;5081134;28;20047;-79
2022/11/26 10:39:06;;;;;;;4.50;3.60;;;8.90;99.90;;;;;;5072889;28;20106;-79
2022/11/26 10:41:36;;;;;;;6.18;3.65;;;8.90;99.90;;;;;;5072966;28;20028;-79
2022/11/26 10:44:27;;;;;;;7.72;4.45;;;8.90;99.90;;;;;;5071450;28;20040;-80
2022/11/26 10:46:52;;;;;;;6.57;4.75;;;9.00;99.90;;;;;;5073039;28;20029;-79
2022/11/26 10:49:25;;;;;;;8.00;4.45;;;9.10;99.90;;;;;;5092706;28;20161;-79
2022/11/26 10:52:00;;;;;;;7.80;4.28;;;9.20;99.90;;;;;;5093550;28;20085;-79
2022/11/26 10:54:31;;;;;;;5.63;4.10;;;9.30;99.90;;;;;;5091314;28;20067;-80
2022/11/26 10:57:10;;;;;;;8.52;4.22;;;9.30;99.90;;;;;;5091718;28;20021;-80
2022/11/26 10:59:43;;;;;;;5.68;4.05;;;9.20;99.90;;;;;;5095439;28;20060;-80
2022/11/26 11:02:37;;;;;;;9.70;5.05;;;9.20;99.90;;;;;;5072591;28;20481;-80
2022/11/26 11:05:06;;;;;;;8.55;4.97;;;9.20;99.90;;;;;;5071383;28;20070;-79
2022/11/26 11:07:32;;;;;;;7.30;4.72;;;9.30;99.90;;;;;;5072438;28;20086;-80
2022/11/26 11:10:07;;;;;;;8.95;5.03;;;9.30;99.90;;;;;;5072125;28;20021;-80
2022/11/26 11:12:33;;;;;;;10.05;6.05;;;9.30;99.90;;;;;;5072577;28;20063;-80
2022/11/26 11:15:19;;;;;;;7.47;5.88;;;9.30;99.90;;;;;;5072647;28;20048;-80
2022/11/26 11:17:53;;;;;;;9.85;6.45;;;9.40;99.90;;;;;;5082299;28;20107;-80
2022/11/26 11:20:26;;;;;;;10.38;8.20;;;9.60;99.90;;;;;;5074969;28;20024;-80
2022/11/26 11:23:05;;;;;;;11.68;8.10;;;9.60;99.90;;;;;;5072405;28;20024;-80
2022/11/26 11:25:34;;;;;;;11.75;7.72;;;9.70;99.90;;;;;;5075847;28;20099;-79
2022/11/26 11:28:11;;;;;;;13.63;9.02;;;9.80;99.90;;;;;;5078117;28;20031;-80
2022/11/26 11:30:37;;;;;;;14.13;8.23;;;9.70;99.90;;;;;;5078771;28;20043;-79
2022/11/26 11:33:29;;;;;;;14.82;8.70;;;9.60;99.90;;;;;;5071634;28;20060;-79
2022/11/26 11:36:05;;;;;;;12.77;8.38;;;9.50;99.90;;;;;;5078288;28;20032;-80
2022/11/26 11:38:53;;;;;;;13.90;8.85;;;9.60;99.90;;;;;;5070630;28;20482;-79
2022/11/26 11:41:27;;;;;;;21.80;9.57;;;9.50;99.90;;;;;;5072003;28;20024;-80
2022/11/26 11:44:13;;;;;;;13.52;9.00;;;9.40;99.90;;;;;;5071806;28;20103;-79
2022/11/26 11:47:08;;;;;;;16.83;9.23;;;9.40;99.90;;;;;;5072013;28;20028;-79
2022/11/26 11:50:02;;;;;;;14.32;8.52;;;9.20;99.90;;;;;;5071396;28;20035;-79
2022/11/26 11:52:53;;;;;;;14.77;8.55;;;9.10;99.90;;;;;;5070896;28;20028;-79
2022/11/26 11:55:31;;;;;;;14.52;8.95;;;9.20;99.90;;;;;;5072495;28;20036;-79
2022/11/26 11:58:12;;;;;;;11.30;8.50;;;9.10;99.90;;;;;;5076729;28;20063;-79
2022/11/26 12:00:37;;;;;;;13.80;10.57;;;9.00;99.90;;;;;;5072087;28;20025;-79
2022/11/26 12:03:19;;;;;;;16.92;9.68;;;8.90;99.90;;;;;;5072198;28;20082;-79
2022/11/26 12:05:55;;;;;;;15.15;10.13;;;8.80;99.90;;;;;;5080080;28;20099;-80
2022/11/26 12:08:45;;;;;;;16.95;11.82;;;8.80;99.90;;;;;;5087845;28;20089;-79
2022/11/26 12:11:28;;;;;;;17.70;11.35;;;8.80;99.90;;;;;;5073951;28;20040;-80
2022/11/26 12:14:01;;;;;;;17.17;11.43;;;8.80;99.90;;;;;;5079234;28;20024;-79
2022/11/26 12:16:34;;;;;;;17.42;10.50;;;8.80;99.90;;;;;;5076154;28;20502;-80
2022/11/26 12:19:01;;;;;;;14.98;9.82;;;9.00;99.90;;;;;;5070930;28;20032;-80
2022/11/26 12:21:58;;;;;;;13.63;10.07;;;9.00;99.90;;;;;;5077179;28;20024;-80
2022/11/26 12:24:50;;;;;;;13.50;9.43;;;9.10;99.90;;;;;;5061281;28;20109;-79
2022/11/26 12:27:40;;;;;;;12.32;8.00;;;9.10;99.90;;;;;;5078782;28;20114;-79
2022/11/26 12:30:21;;;;;;;13.25;8.95;;;9.20;99.90;;;;;;5083569;28;20034;-79
2022/11/26 12:33:01;;;;;;;13.15;8.88;;;9.20;99.90;;;;;;5079464;28;20086;-79
2022/11/26 12:35:38;;;;;;;11.40;7.55;;;9.10;99.90;;;;;;5076016;28;20039;-80
2022/11/26 12:38:33;;;;;;;14.77;8.68;;;9.30;99.90;;;;;;5078413;28;20024;-80
2022/11/26 12:41:10;;;;;;;15.00;10.05;;;9.20;99.90;;;;;;5074752;28;20123;-80
2022/11/26 12:44:00;;;;;;;13.10;9.10;;;9.10;99.90;;;;;;5080772;28;20486;-79
2022/11/26 12:46:43;;;;;;;11.15;9.38;;;9.10;99.90;;;;;;5080573;28;20025;-80
2022/11/26 12:49:36;;;;;;;13.05;9.25;;;9.20;99.90;;;;;;5080684;28;20051;-79
2022/11/26 12:52:24;;;;;;;10.60;8.35;;;9.30;99.90;;;;;;5096563;28;20132;-80
2022/11/26 12:55:04;;;;;;;12.30;9.02;;;9.60;99.90;;;;;;5079617;28;20021;-80
2022/11/26 12:57:43;;;;;;;12.35;8.38;;;9.50;99.90;;;;;;5072112;28;20062;-80
2022/11/26 13:00:20;;;;;;;12.65;7.85;;;9.50;99.90;;;;;;5076019;28;20032;-79
2022/11/26 13:02:49;;;;;;;10.30;7.72;;;9.40;99.90;;;;;;5081271;28;20035;-79
2022/11/26 13:05:54;;;;;;;12.30;8.00;;;9.40;99.90;;;;;;5078160;28;20024;-80
2022/11/26 13:08:35;;;;;;;11.48;7.72;;;9.40;99.90;;;;;;5075656;28;20258;-80
2022/11/26 13:11:41;;;;;;;13.95;7.82;;;9.30;99.90;;;;;;5070945;28;20111;-80